sensor_id;sensor_type;location;lat;lon;timestamp;temperature;humidity
73780;SHT30;62093;37.614;15.072;2023-04-01T00:00:24;17.49;54.76
73780;SHT30;62093;37.614;15.072;2023-04-01T00:02:50;17.54;54.77
73780;SHT30;62093;37.614;15.072;2023-04-01T00:05:16;17.49;54.47
73780;SHT30;62093;37.614;15.072;2023-04-01T00:07:42;17.48;54.65
73780;SHT30;62093;37.614;15.072;2023-04-01T00:10:10;17.46;54.81
73780;SHT30;62093;37.614;15.072;2023-04-01T00:12:37;17.46;54.75
73780;SHT30;62093;37.614;15.072;2023-04-01T00:15:05;17.45;54.70
73780;SHT30;62093;37.614;15.072;2023-04-01T00:17:31;17.42;54.87
73780;SHT30;62093;37.614;15.072;2023-04-01T00:19:57;17.41;54.60
73780;SHT30;62093;37.614;15.072;2023-04-01T00:22:24;17.42;55.06
73780;SHT30;62093;37.614;15.072;2023-04-01T00:24:52;17.39;54.82
73780;SHT30;62093;37.614;15.072;2023-04-01T00:27:18;17.39;54.79
73780;SHT30;62093;37.614;15.072;2023-04-01T00:29:45;17.41;54.66
73780;SHT30;62093;37.614;15.072;2023-04-01T00:32:12;17.38;55.09
73780;SHT30;62093;37.614;15.072;2023-04-01T00:34:38;17.38;54.83
73780;SHT30;62093;37.614;15.072;2023-04-01T00:37:08;17.38;55.14
73780;SHT30;62093;37.614;15.072;2023-04-01T00:39:35;17.36;55.27
73780;SHT30;62093;37.614;15.072;2023-04-01T00:42:03;17.36;55.43
73780;SHT30;62093;37.614;15.072;2023-04-01T00:44:34;17.34;55.40
73780;SHT30;62093;37.614;15.072;2023-04-01T00:47:00;17.35;55.37
73780;SHT30;62093;37.614;15.072;2023-04-01T00:49:40;17.31;55.33
73780;SHT30;62093;37.614;15.072;2023-04-01T00:52:10;17.31;55.57
73780;SHT30;62093;37.614;15.072;2023-04-01T00:54:37;17.31;55.63
73780;SHT30;62093;37.614;15.072;2023-04-01T00:57:11;17.32;55.39
73780;SHT30;62093;37.614;15.072;2023-04-01T00:59:44;17.30;55.52
73780;SHT30;62093;37.614;15.072;2023-04-01T01:02:12;17.30;55.42
73780;SHT30;62093;37.614;15.072;2023-04-01T01:04:38;17.27;55.58
73780;SHT30;62093;37.614;15.072;2023-04-01T01:37:32;17.30;55.09
73780;SHT30;62093;37.614;15.072;2023-04-01T01:40:03;17.30;55.41
73780;SHT30;62093;37.614;15.072;2023-04-01T01:42:35;17.30;55.15
73780;SHT30;62093;37.614;15.072;2023-04-01T01:45:04;17.28;54.32
73780;SHT30;62093;37.614;15.072;2023-04-01T01:47:32;17.32;54.55
73780;SHT30;62093;37.614;15.072;2023-04-01T01:49:59;17.32;54.93
73780;SHT30;62093;37.614;15.072;2023-04-01T01:52:27;17.30;54.68
73780;SHT30;62093;37.614;15.072;2023-04-01T01:54:56;17.31;55.05
73780;SHT30;62093;37.614;15.072;2023-04-01T01:57:32;17.31;54.43
73780;SHT30;62093;37.614;15.072;2023-04-01T02:00:07;17.31;54.46
73780;SHT30;62093;37.614;15.072;2023-04-01T02:02:42;17.28;54.84
73780;SHT30;62093;37.614;15.072;2023-04-01T02:05:10;17.31;54.82
73780;SHT30;62093;37.614;15.072;2023-04-01T02:07:38;17.32;54.54
73780;SHT30;62093;37.614;15.072;2023-04-01T02:10:05;17.30;54.43
73780;SHT30;62093;37.614;15.072;2023-04-01T02:12:33;17.30;54.41
73780;SHT30;62093;37.614;15.072;2023-04-01T02:15:09;17.31;54.90
73780;SHT30;62093;37.614;15.072;2023-04-01T02:17:41;17.30;54.73
73780;SHT30;62093;37.614;15.072;2023-04-01T02:20:18;17.28;54.77
73780;SHT30;62093;37.614;15.072;2023-04-01T02:22:52;17.30;54.27
73780;SHT30;62093;37.614;15.072;2023-04-01T02:25:23;17.28;54.52
73780;SHT30;62093;37.614;15.072;2023-04-01T02:27:51;17.27;54.91
73780;SHT30;62093;37.614;15.072;2023-04-01T02:30:18;17.28;54.43
73780;SHT30;62093;37.614;15.072;2023-04-01T02:32:46;17.28;54.44
73780;SHT30;62093;37.614;15.072;2023-04-01T02:35:13;17.28;54.86
73780;SHT30;62093;37.614;15.072;2023-04-01T02:37:44;17.28;54.44
73780;SHT30;62093;37.614;15.072;2023-04-01T02:40:13;17.28;54.94
73780;SHT30;62093;37.614;15.072;2023-04-01T02:42:40;17.27;54.49
73780;SHT30;62093;37.614;15.072;2023-04-01T02:45:06;17.28;55.33
73780;SHT30;62093;37.614;15.072;2023-04-01T02:47:32;17.27;55.30
73780;SHT30;62093;37.614;15.072;2023-04-01T02:49:58;17.25;54.66
73780;SHT30;62093;37.614;15.072;2023-04-01T02:52:24;17.24;55.07
73780;SHT30;62093;37.614;15.072;2023-04-01T02:54:51;17.24;54.96
73780;SHT30;62093;37.614;15.072;2023-04-01T02:57:17;17.24;55.08
73780;SHT30;62093;37.614;15.072;2023-04-01T02:59:42;17.24;55.20
73780;SHT30;62093;37.614;15.072;2023-04-01T03:02:08;17.23;54.88
73780;SHT30;62093;37.614;15.072;2023-04-01T03:04:34;17.23;53.99
73780;SHT30;62093;37.614;15.072;2023-04-01T03:07:00;17.21;54.89
73780;SHT30;62093;37.614;15.072;2023-04-01T03:09:26;17.21;54.76
73780;SHT30;62093;37.614;15.072;2023-04-01T03:11:54;17.23;54.77
73780;SHT30;62093;37.614;15.072;2023-04-01T03:14:20;17.20;55.63
73780;SHT30;62093;37.614;15.072;2023-04-01T03:16:46;17.21;54.98
73780;SHT30;62093;37.614;15.072;2023-04-01T03:19:12;17.20;54.91
73780;SHT30;62093;37.614;15.072;2023-04-01T03:21:38;17.21;55.13
73780;SHT30;62093;37.614;15.072;2023-04-01T03:24:04;17.18;55.26
73780;SHT30;62093;37.614;15.072;2023-04-01T03:26:30;17.18;54.86
73780;SHT30;62093;37.614;15.072;2023-04-01T03:28:56;17.18;54.93
73780;SHT30;62093;37.614;15.072;2023-04-01T03:31:22;17.18;54.96
73780;SHT30;62093;37.614;15.072;2023-04-01T03:33:52;17.18;54.76
73780;SHT30;62093;37.614;15.072;2023-04-01T03:36:18;17.21;55.32
73780;SHT30;62093;37.614;15.072;2023-04-01T03:38:45;17.18;54.90
73780;SHT30;62093;37.614;15.072;2023-04-01T03:41:16;17.18;55.05
73780;SHT30;62093;37.614;15.072;2023-04-01T03:43:43;17.15;55.25
73780;SHT30;62093;37.614;15.072;2023-04-01T03:46:10;17.18;54.90
73780;SHT30;62093;37.614;15.072;2023-04-01T03:48:36;17.15;54.67
73780;SHT30;62093;37.614;15.072;2023-04-01T03:51:06;17.17;55.80
73780;SHT30;62093;37.614;15.072;2023-04-01T03:53:32;17.15;55.38
73780;SHT30;62093;37.614;15.072;2023-04-01T03:56:08;17.15;55.09
73780;SHT30;62093;37.614;15.072;2023-04-01T03:58:36;17.14;55.29
73780;SHT30;62093;37.614;15.072;2023-04-01T04:01:21;17.15;55.67
73780;SHT30;62093;37.614;15.072;2023-04-01T04:03:50;17.17;55.29
73780;SHT30;62093;37.614;15.072;2023-04-01T04:06:18;17.17;55.55
73780;SHT30;62093;37.614;15.072;2023-04-01T04:08:44;17.17;55.61
73780;SHT30;62093;37.614;15.072;2023-04-01T04:11:11;17.18;55.81
73780;SHT30;62093;37.614;15.072;2023-04-01T04:13:41;17.17;55.83
73780;SHT30;62093;37.614;15.072;2023-04-01T04:16:07;17.15;55.48
73780;SHT30;62093;37.614;15.072;2023-04-01T04:18:37;17.18;55.64
73780;SHT30;62093;37.614;15.072;2023-04-01T04:21:03;17.17;55.45
73780;SHT30;62093;37.614;15.072;2023-04-01T04:23:30;17.18;55.32
73780;SHT30;62093;37.614;15.072;2023-04-01T04:26:11;17.15;55.22
73780;SHT30;62093;37.614;15.072;2023-04-01T04:28:38;17.17;55.32
73780;SHT30;62093;37.614;15.072;2023-04-01T04:31:04;17.18;54.49
73780;SHT30;62093;37.614;15.072;2023-04-01T04:33:35;17.20;55.53
73780;SHT30;62093;37.614;15.072;2023-04-01T04:36:02;17.15;55.44
73780;SHT30;62093;37.614;15.072;2023-04-01T04:38:28;17.15;55.15
73780;SHT30;62093;37.614;15.072;2023-04-01T04:40:55;17.18;55.48
73780;SHT30;62093;37.614;15.072;2023-04-01T04:43:21;17.17;55.41
73780;SHT30;62093;37.614;15.072;2023-04-01T04:45:47;17.17;55.80
73780;SHT30;62093;37.614;15.072;2023-04-01T04:48:15;17.15;55.06
73780;SHT30;62093;37.614;15.072;2023-04-01T04:50:46;17.17;55.79
73780;SHT30;62093;37.614;15.072;2023-04-01T04:53:14;17.15;55.69
73780;SHT30;62093;37.614;15.072;2023-04-01T04:55:47;17.17;55.02
73780;SHT30;62093;37.614;15.072;2023-04-01T04:58:31;17.15;55.74
73780;SHT30;62093;37.614;15.072;2023-04-01T05:00:58;17.15;55.67
73780;SHT30;62093;37.614;15.072;2023-04-01T05:03:30;17.17;55.17
73780;SHT30;62093;37.614;15.072;2023-04-01T05:05:55;17.15;55.41
73780;SHT30;62093;37.614;15.072;2023-04-01T05:08:21;17.17;55.82
73780;SHT30;62093;37.614;15.072;2023-04-01T05:10:47;17.15;55.31
73780;SHT30;62093;37.614;15.072;2023-04-01T05:13:13;17.17;55.92
73780;SHT30;62093;37.614;15.072;2023-04-01T05:15:41;17.13;55.93
73780;SHT30;62093;37.614;15.072;2023-04-01T05:18:07;17.11;55.60
73780;SHT30;62093;37.614;15.072;2023-04-01T05:20:33;17.11;55.92
73780;SHT30;62093;37.614;15.072;2023-04-01T05:23:00;17.14;55.81
73780;SHT30;62093;37.614;15.072;2023-04-01T05:25:26;17.11;55.54
73780;SHT30;62093;37.614;15.072;2023-04-01T05:27:52;17.10;55.25
73780;SHT30;62093;37.614;15.072;2023-04-01T05:30:18;17.10;55.83
73780;SHT30;62093;37.614;15.072;2023-04-01T05:33:13;17.11;55.56
73780;SHT30;62093;37.614;15.072;2023-04-01T05:35:40;17.10;55.89
73780;SHT30;62093;37.614;15.072;2023-04-01T05:38:07;17.10;55.72
73780;SHT30;62093;37.614;15.072;2023-04-01T05:40:34;17.08;56.60
73780;SHT30;62093;37.614;15.072;2023-04-01T05:43:00;17.10;56.34
73780;SHT30;62093;37.614;15.072;2023-04-01T05:45:26;17.11;56.71
73780;SHT30;62093;37.614;15.072;2023-04-01T05:48:11;17.08;56.40
73780;SHT30;62093;37.614;15.072;2023-04-01T05:50:40;17.10;56.85
73780;SHT30;62093;37.614;15.072;2023-04-01T05:53:07;17.10;56.36
73780;SHT30;62093;37.614;15.072;2023-04-01T05:55:36;17.11;56.66
73780;SHT30;62093;37.614;15.072;2023-04-01T05:58:02;17.10;56.35
73780;SHT30;62093;37.614;15.072;2023-04-01T06:00:29;17.10;56.82
73780;SHT30;62093;37.614;15.072;2023-04-01T06:03:00;17.10;56.50
73780;SHT30;62093;37.614;15.072;2023-04-01T06:05:42;17.10;56.44
73780;SHT30;62093;37.614;15.072;2023-04-01T06:08:13;17.10;56.64
73780;SHT30;62093;37.614;15.072;2023-04-01T06:16:25;17.10;56.65
73780;SHT30;62093;37.614;15.072;2023-04-01T06:18:57;17.10;56.58
73780;SHT30;62093;37.614;15.072;2023-04-01T06:27:39;17.11;56.73
73780;SHT30;62093;37.614;15.072;2023-04-01T06:30:29;17.13;57.03
73780;SHT30;62093;37.614;15.072;2023-04-01T06:46:58;17.15;56.68
73780;SHT30;62093;37.614;15.072;2023-04-01T06:53:21;17.18;56.71
73780;SHT30;62093;37.614;15.072;2023-04-01T06:56:27;17.18;56.59
73780;SHT30;62093;37.614;15.072;2023-04-01T06:59:16;17.20;56.87
73780;SHT30;62093;37.614;15.072;2023-04-01T07:01:50;17.17;56.61
73780;SHT30;62093;37.614;15.072;2023-04-01T07:04:32;17.20;56.67
73780;SHT30;62093;37.614;15.072;2023-04-01T07:07:27;17.21;56.60
73780;SHT30;62093;37.614;15.072;2023-04-01T07:09:56;17.21;56.28
73780;SHT30;62093;37.614;15.072;2023-04-01T07:15:29;17.25;56.41
73780;SHT30;62093;37.614;15.072;2023-04-01T07:18:03;17.25;56.28
73780;SHT30;62093;37.614;15.072;2023-04-01T07:20:32;17.24;56.29
73780;SHT30;62093;37.614;15.072;2023-04-01T07:23:05;17.30;56.53
73780;SHT30;62093;37.614;15.072;2023-04-01T07:25:48;17.27;56.47
73780;SHT30;62093;37.614;15.072;2023-04-01T07:28:39;17.30;56.40
73780;SHT30;62093;37.614;15.072;2023-04-01T07:33:55;17.31;56.25
73780;SHT30;62093;37.614;15.072;2023-04-01T07:36:48;17.32;56.41
73780;SHT30;62093;37.614;15.072;2023-04-01T07:50:29;17.41;56.49
73780;SHT30;62093;37.614;15.072;2023-04-01T08:01:35;17.41;55.97
73780;SHT30;62093;37.614;15.072;2023-04-01T08:06:50;17.41;55.74
73780;SHT30;62093;37.614;15.072;2023-04-01T08:09:22;17.42;55.88
73780;SHT30;62093;37.614;15.072;2023-04-01T08:15:52;17.45;56.10
73780;SHT30;62093;37.614;15.072;2023-04-01T08:21:25;17.45;55.28
73780;SHT30;62093;37.614;15.072;2023-04-01T08:23:56;17.46;55.78
73780;SHT30;62093;37.614;15.072;2023-04-01T08:26:40;17.46;56.09
73780;SHT30;62093;37.614;15.072;2023-04-01T08:29:20;17.46;56.16
73780;SHT30;62093;37.614;15.072;2023-04-01T08:31:51;17.46;56.23
73780;SHT30;62093;37.614;15.072;2023-04-01T08:34:24;17.49;56.09
73780;SHT30;62093;37.614;15.072;2023-04-01T08:37:00;17.52;56.21
73780;SHT30;62093;37.614;15.072;2023-04-01T08:39:36;17.51;56.35
73780;SHT30;62093;37.614;15.072;2023-04-01T08:56:47;17.55;56.42
73780;SHT30;62093;37.614;15.072;2023-04-01T08:59:35;17.54;56.41
73780;SHT30;62093;37.614;15.072;2023-04-01T09:14:07;17.61;56.36
73780;SHT30;62093;37.614;15.072;2023-04-01T09:22:55;17.63;56.42
73780;SHT30;62093;37.614;15.072;2023-04-01T09:28:34;17.62;56.34
73780;SHT30;62093;37.614;15.072;2023-04-01T09:34:00;17.63;56.39
73780;SHT30;62093;37.614;15.072;2023-04-01T09:45:00;17.73;56.31
73780;SHT30;62093;37.614;15.072;2023-04-01T09:50:34;17.73;56.32
73780;SHT30;62093;37.614;15.072;2023-04-01T09:53:17;17.75;56.33
73780;SHT30;62093;37.614;15.072;2023-04-01T09:55:53;17.73;56.33
73780;SHT30;62093;37.614;15.072;2023-04-01T10:19:23;17.85;56.17
73780;SHT30;62093;37.614;15.072;2023-04-01T10:34:01;17.89;56.05
73780;SHT30;62093;37.614;15.072;2023-04-01T10:36:55;17.89;56.04
73780;SHT30;62093;37.614;15.072;2023-04-01T11:00:48;17.99;55.87
73780;SHT30;62093;37.614;15.072;2023-04-01T11:13:33;18.03;55.82
73780;SHT30;62093;37.614;15.072;2023-04-01T11:15:26;18.03;55.77
73780;SHT30;62093;37.614;15.072;2023-04-01T11:37:52;18.10;55.66
73780;SHT30;62093;37.614;15.072;2023-04-01T11:44:20;18.13;55.64
73780;SHT30;62093;37.614;15.072;2023-04-01T11:48:13;18.14;55.62
73780;SHT30;62093;37.614;15.072;2023-04-01T12:02:08;18.18;55.51
73780;SHT30;62093;37.614;15.072;2023-04-01T12:07:15;18.22;55.47
73780;SHT30;62093;37.614;15.072;2023-04-01T12:09:47;18.22;55.45
73780;SHT30;62093;37.614;15.072;2023-04-01T12:12:27;18.22;55.40
73780;SHT30;62093;37.614;15.072;2023-04-01T12:17:36;18.24;55.41
73780;SHT30;62093;37.614;15.072;2023-04-01T12:25:52;18.26;55.43
73780;SHT30;62093;37.614;15.072;2023-04-01T12:28:25;18.26;55.39
73780;SHT30;62093;37.614;15.072;2023-04-01T12:40:24;18.27;55.37
73780;SHT30;62093;37.614;15.072;2023-04-01T12:45:30;18.29;55.35
73780;SHT30;62093;37.614;15.072;2023-04-01T12:56:03;18.27;55.33
73780;SHT30;62093;37.614;15.072;2023-04-01T13:09:57;18.32;55.28
73780;SHT30;62093;37.614;15.072;2023-04-01T13:20:49;18.37;55.24
73780;SHT30;62093;37.614;15.072;2023-04-01T13:23:37;18.34;55.24
73780;SHT30;62093;37.614;15.072;2023-04-01T13:29:02;18.36;55.20
73780;SHT30;62093;37.614;15.072;2023-04-01T13:34:35;18.37;55.21
73780;SHT30;62093;37.614;15.072;2023-04-01T13:42:23;18.38;55.18
73780;SHT30;62093;37.614;15.072;2023-04-01T13:50:26;18.40;55.18
73780;SHT30;62093;37.614;15.072;2023-04-01T13:53:25;18.38;55.15
73780;SHT30;62093;37.614;15.072;2023-04-01T13:59:01;18.41;55.17
73780;SHT30;62093;37.614;15.072;2023-04-01T14:07:08;18.41;55.13
73780;SHT30;62093;37.614;15.072;2023-04-01T14:12:39;18.43;55.17
73780;SHT30;62093;37.614;15.072;2023-04-01T14:29:00;18.44;55.10
73780;SHT30;62093;37.614;15.072;2023-04-01T14:37:37;18.44;55.11
73780;SHT30;62093;37.614;15.072;2023-04-01T14:45:55;18.44;55.00
73780;SHT30;62093;37.614;15.072;2023-04-01T14:51:34;18.45;55.00
73780;SHT30;62093;37.614;15.072;2023-04-01T14:54:04;18.44;54.98
73780;SHT30;62093;37.614;15.072;2023-04-01T14:56:40;18.47;54.97
73780;SHT30;62093;37.614;15.072;2023-04-01T15:20:56;18.51;55.00
73780;SHT30;62093;37.614;15.072;2023-04-01T15:37:56;18.48;55.00
73780;SHT30;62093;37.614;15.072;2023-04-01T15:40:32;18.50;55.05
73780;SHT30;62093;37.614;15.072;2023-04-01T15:58:01;18.48;55.08
73780;SHT30;62093;37.614;15.072;2023-04-01T16:00:45;18.47;55.08
73780;SHT30;62093;37.614;15.072;2023-04-01T16:06:24;18.48;55.07
73780;SHT30;62093;37.614;15.072;2023-04-01T16:17:02;18.44;55.12
73780;SHT30;62093;37.614;15.072;2023-04-01T16:28:08;18.44;55.15
73780;SHT30;62093;37.614;15.072;2023-04-01T16:30:48;18.44;55.19
73780;SHT30;62093;37.614;15.072;2023-04-01T16:33:22;18.44;55.24
73780;SHT30;62093;37.614;15.072;2023-04-01T16:36:29;18.44;55.19
73780;SHT30;62093;37.614;15.072;2023-04-01T16:39:02;18.45;55.23
73780;SHT30;62093;37.614;15.072;2023-04-01T16:41:36;18.41;55.23
73780;SHT30;62093;37.614;15.072;2023-04-01T16:44:19;18.41;55.28
73780;SHT30;62093;37.614;15.072;2023-04-01T16:47:04;18.43;55.27
73780;SHT30;62093;37.614;15.072;2023-04-01T16:49:37;18.41;55.30
73780;SHT30;62093;37.614;15.072;2023-04-01T16:59:40;18.38;55.34
73780;SHT30;62093;37.614;15.072;2023-04-01T17:02:16;18.38;55.34
73780;SHT30;62093;37.614;15.072;2023-04-01T17:15:57;18.37;55.42
73780;SHT30;62093;37.614;15.072;2023-04-01T17:27:32;18.36;55.46
73780;SHT30;62093;37.614;15.072;2023-04-01T17:30:17;18.36;55.47
73780;SHT30;62093;37.614;15.072;2023-04-01T18:05:30;18.24;55.53
73780;SHT30;62093;37.614;15.072;2023-04-01T18:22:08;18.20;55.63
73780;SHT30;62093;37.614;15.072;2023-04-01T18:24:45;18.18;55.63
73780;SHT30;62093;37.614;15.072;2023-04-01T18:29:40;18.14;55.70
73780;SHT30;62093;37.614;15.072;2023-04-01T18:37:22;18.14;55.72
73780;SHT30;62093;37.614;15.072;2023-04-01T18:40:10;18.13;55.75
73780;SHT30;62093;37.614;15.072;2023-04-01T18:45:22;18.14;55.82
73780;SHT30;62093;37.614;15.072;2023-04-01T18:50:50;18.12;55.88
73780;SHT30;62093;37.614;15.072;2023-04-01T18:53:30;18.12;55.90
73780;SHT30;62093;37.614;15.072;2023-04-01T18:56:01;18.09;55.91
73780;SHT30;62093;37.614;15.072;2023-04-01T18:58:48;18.07;55.99
73780;SHT30;62093;37.614;15.072;2023-04-01T19:01:24;18.07;55.96
73780;SHT30;62093;37.614;15.072;2023-04-01T19:09:49;18.07;56.07
73780;SHT30;62093;37.614;15.072;2023-04-01T19:16:02;18.03;56.13
73780;SHT30;62093;37.614;15.072;2023-04-01T19:21:18;18.03;56.22
73780;SHT30;62093;37.614;15.072;2023-04-01T19:26:50;18.00;56.32
73780;SHT30;62093;37.614;15.072;2023-04-01T19:40:42;17.97;56.42
73780;SHT30;62093;37.614;15.072;2023-04-01T19:46:16;17.95;56.47
73780;SHT30;62093;37.614;15.072;2023-04-01T19:59:55;17.96;56.58
73780;SHT30;62093;37.614;15.072;2023-04-01T20:02:42;17.93;56.57
73780;SHT30;62093;37.614;15.072;2023-04-01T20:11:55;17.89;56.66
73780;SHT30;62093;37.614;15.072;2023-04-01T20:14:39;17.89;56.68
73780;SHT30;62093;37.614;15.072;2023-04-01T20:22:24;17.89;56.67
73780;SHT30;62093;37.614;15.072;2023-04-01T20:25:01;17.87;56.73
73780;SHT30;62093;37.614;15.072;2023-04-01T20:27:37;17.89;56.75
73780;SHT30;62093;37.614;15.072;2023-04-01T20:33:02;17.87;56.75
73780;SHT30;62093;37.614;15.072;2023-04-01T20:41:22;17.85;56.82
73780;SHT30;62093;37.614;15.072;2023-04-01T20:46:46;17.86;56.86
73780;SHT30;62093;37.614;15.072;2023-04-01T21:00:22;17.85;56.82
73780;SHT30;62093;37.614;15.072;2023-04-01T21:14:00;17.83;56.86
73780;SHT30;62093;37.614;15.072;2023-04-01T21:33:35;17.79;56.98
73780;SHT30;62093;37.614;15.072;2023-04-01T21:36:13;17.76;56.93
73780;SHT30;62093;37.614;15.072;2023-04-01T21:44:05;17.76;56.93
73780;SHT30;62093;37.614;15.072;2023-04-01T21:46:57;17.76;57.02
73780;SHT30;62093;37.614;15.072;2023-04-01T21:56:21;17.76;57.14
73780;SHT30;62093;37.614;15.072;2023-04-01T21:58:32;17.76;57.08
73780;SHT30;62093;37.614;15.072;2023-04-01T22:06:38;17.75;57.07
73780;SHT30;62093;37.614;15.072;2023-04-01T22:14:56;17.73;57.00
73780;SHT30;62093;37.614;15.072;2023-04-01T22:17:35;17.72;57.03
73780;SHT30;62093;37.614;15.072;2023-04-01T22:20:17;17.73;57.00
73780;SHT30;62093;37.614;15.072;2023-04-01T22:23:46;17.72;57.10
73780;SHT30;62093;37.614;15.072;2023-04-01T22:28:58;17.71;57.09
73780;SHT30;62093;37.614;15.072;2023-04-01T22:37:04;17.69;57.22
73780;SHT30;62093;37.614;15.072;2023-04-01T22:42:44;17.68;57.20
73780;SHT30;62093;37.614;15.072;2023-04-01T22:51:18;17.66;57.24
73780;SHT30;62093;37.614;15.072;2023-04-01T22:56:24;17.65;57.36
73780;SHT30;62093;37.614;15.072;2023-04-01T22:58:59;17.68;57.34
73780;SHT30;62093;37.614;15.072;2023-04-01T23:01:30;17.66;57.27
73780;SHT30;62093;37.614;15.072;2023-04-01T23:03:59;17.65;57.33
73780;SHT30;62093;37.614;15.072;2023-04-01T23:06:33;17.63;57.11
73780;SHT30;62093;37.614;15.072;2023-04-01T23:12:06;17.63;57.06
73780;SHT30;62093;37.614;15.072;2023-04-01T23:14:51;17.62;57.16
73780;SHT30;62093;37.614;15.072;2023-04-01T23:21:34;17.59;57.29
73780;SHT30;62093;37.614;15.072;2023-04-01T23:26:43;17.59;57.23
73780;SHT30;62093;37.614;15.072;2023-04-01T23:29:17;17.59;57.28
73780;SHT30;62093;37.614;15.072;2023-04-01T23:31:45;17.59;56.55
73780;SHT30;62093;37.614;15.072;2023-04-01T23:37:04;17.58;57.43
73780;SHT30;62093;37.614;15.072;2023-04-01T23:42:29;17.58;57.55
73780;SHT30;62093;37.614;15.072;2023-04-01T23:44:58;17.59;57.62
73780;SHT30;62093;37.614;15.072;2023-04-01T23:47:38;17.58;57.60
73780;SHT30;62093;37.614;15.072;2023-04-01T23:50:14;17.56;57.49
73780;SHT30;62093;37.614;15.072;2023-04-01T23:52:46;17.58;57.56
73780;SHT30;62093;37.614;15.072;2023-04-01T23:57:40;17.58;57.69
